Time;durP1;ratioP1;P1;durP2;ratioP2;P2;SDS_P1;SDS_P2;PMS_P1;PMS_P2;Temp;Humidity;BMP_temperature;BMP_pressure;BME280_temperature;BME280_humidity;BME280_pressure;Samples;Min_cycle;Max_cycle;Signal;HPM_P1;HPM_P2
2022/03/27 00:01:19;;;;;;;8.45;6.32;;;7.90;83.10;;;;;;4923339;29;20059;-67
2022/03/27 00:03:45;;;;;;;7.03;6.43;;;7.90;83.10;;;;;;4926694;29;20050;-66
2022/03/27 00:06:10;;;;;;;7.38;5.95;;;7.80;83.10;;;;;;4928734;29;20039;-67
2022/03/27 00:08:36;;;;;;;11.20;6.63;;;7.80;83.00;;;;;;4930192;29;20043;-67
2022/03/27 00:13:47;;;;;;;9.50;6.30;;;7.80;82.80;;;;;;4928559;29;20070;-67
2022/03/27 00:16:13;;;;;;;9.05;6.93;;;7.70;82.80;;;;;;4930598;29;20058;-66
2022/03/27 00:18:41;;;;;;;6.90;6.30;;;7.70;82.80;;;;;;4928761;29;20051;-67
2022/03/27 00:21:07;;;;;;;7.22;6.35;;;7.70;82.70;;;;;;4931426;29;20047;-67
2022/03/27 00:23:33;;;;;;;7.32;6.25;;;7.70;82.80;;;;;;4928748;29;20342;-67
2022/03/27 00:25:59;;;;;;;7.85;6.40;;;7.70;82.80;;;;;;4930328;29;20055;-66
2022/03/27 00:28:25;;;;;;;7.85;6.20;;;7.70;82.70;;;;;;4926370;29;20050;-66
2022/03/27 00:30:51;;;;;;;7.38;6.47;;;7.70;82.60;;;;;;4928888;29;20463;-67
2022/03/27 00:33:18;;;;;;;8.02;6.50;;;7.70;82.70;;;;;;4927368;29;21049;-67
2022/03/27 00:35:47;;;;;;;7.35;6.20;;;7.70;82.70;;;;;;4911251;29;20057;-67
2022/03/27 00:38:12;;;;;;;8.25;6.15;;;7.70;82.60;;;;;;4929836;29;20060;-67
2022/03/27 00:40:38;;;;;;;7.43;6.60;;;7.70;82.50;;;;;;4929946;29;20083;-67
2022/03/27 00:43:04;;;;;;;9.15;6.95;;;7.70;82.50;;;;;;4929842;29;20463;-67
2022/03/27 00:45:30;;;;;;;10.43;7.30;;;7.70;82.60;;;;;;4929907;29;20513;-67
2022/03/27 00:47:56;;;;;;;15.00;8.02;;;7.60;82.50;;;;;;4928751;29;20445;-67
2022/03/27 00:50:22;;;;;;;8.02;7.22;;;7.70;82.50;;;;;;4930698;29;20047;-68
2022/03/27 00:52:48;;;;;;;11.18;8.00;;;7.60;82.50;;;;;;4928056;29;20067;-67
2022/03/27 00:55:13;;;;;;;12.60;8.80;;;7.60;82.50;;;;;;4933605;29;20047;-67
2022/03/27 00:57:39;;;;;;;10.75;9.48;;;7.60;82.40;;;;;;4932326;29;20041;-67
2022/03/27 01:00:17;;;;;;;10.40;8.88;;;7.60;82.50;;;;;;4932904;29;20482;-67
2022/03/27 01:02:43;;;;;;;10.63;9.15;;;7.60;82.70;;;;;;4932757;29;20044;-67
2022/03/27 01:05:13;;;;;;;13.50;8.82;;;7.60;82.80;;;;;;4933016;29;20111;-65
2022/03/27 01:07:40;;;;;;;14.40;9.40;;;7.60;82.90;;;;;;4931191;29;20056;-66
2022/03/27 01:10:07;;;;;;;10.35;9.30;;;7.60;82.90;;;;;;4933922;29;20047;-66
2022/03/27 01:12:39;;;;;;;10.13;8.70;;;7.60;83.00;;;;;;4932995;29;20405;-67
2022/03/27 01:15:13;;;;;;;11.30;9.02;;;7.60;83.00;;;;;;4933424;29;20043;-67
2022/03/27 01:17:39;;;;;;;10.95;9.68;;;7.60;83.00;;;;;;4933253;29;20079;-67
2022/03/27 01:20:05;;;;;;;11.73;9.18;;;7.60;83.00;;;;;;4933706;29;20083;-66
2022/03/27 01:22:30;;;;;;;15.45;11.63;;;7.60;83.10;;;;;;4932841;29;20422;-66
2022/03/27 01:24:56;;;;;;;11.45;10.27;;;7.60;83.10;;;;;;4932784;29;20126;-66
2022/03/27 01:27:22;;;;;;;12.68;11.10;;;7.60;83.00;;;;;;4933066;29;20124;-67
2022/03/27 01:29:48;;;;;;;12.90;11.05;;;7.60;83.00;;;;;;4931020;29;20043;-66
2022/03/27 01:32:16;;;;;;;16.20;12.13;;;7.50;83.10;;;;;;4931935;29;20102;-67
2022/03/27 01:34:45;;;;;;;15.05;12.30;;;7.60;83.20;;;;;;4932892;29;20087;-67
2022/03/27 01:37:13;;;;;;;16.70;12.73;;;7.60;83.30;;;;;;4915726;29;20119;-66
2022/03/27 01:39:39;;;;;;;16.02;12.18;;;7.60;83.40;;;;;;4931986;29;20043;-66
2022/03/27 01:42:06;;;;;;;14.13;12.80;;;7.60;83.30;;;;;;4933355;29;20413;-67
2022/03/27 01:44:32;;;;;;;13.45;10.38;;;7.60;83.30;;;;;;4932151;29;20519;-66
2022/03/27 01:46:59;;;;;;;11.50;9.90;;;7.50;83.40;;;;;;4932421;29;20040;-67
2022/03/27 01:49:24;;;;;;;16.55;11.18;;;7.50;83.50;;;;;;4931841;29;20459;-67
2022/03/27 01:51:50;;;;;;;14.02;10.93;;;7.40;83.60;;;;;;4915924;29;20047;-67
2022/03/27 01:54:19;;;;;;;13.48;10.20;;;7.40;83.60;;;;;;4933089;29;20047;-68
2022/03/27 01:56:44;;;;;;;15.75;10.68;;;7.40;83.90;;;;;;4915607;29;20500;-67
2022/03/27 01:59:10;;;;;;;15.93;10.75;;;7.50;83.70;;;;;;4929585;29;20094;-67
2022/03/27 02:01:37;;;;;;;17.42;10.60;;;7.40;83.70;;;;;;4931877;29;20032;-68
2022/03/27 02:04:03;;;;;;;13.10;10.07;;;7.40;83.80;;;;;;4932837;29;20087;-68
2022/03/27 02:06:30;;;;;;;18.95;10.77;;;7.40;84.10;;;;;;4932169;29;20449;-67
2022/03/27 02:08:57;;;;;;;13.63;10.02;;;7.40;84.10;;;;;;4930945;29;20086;-67
2022/03/27 02:11:23;;;;;;;12.63;10.40;;;7.40;84.20;;;;;;4932574;29;20047;-67
2022/03/27 02:13:48;;;;;;;12.15;10.95;;;7.40;84.30;;;;;;4931223;29;20107;-67
2022/03/27 02:16:14;;;;;;;16.65;11.68;;;7.40;84.50;;;;;;4932007;29;20040;-67
2022/03/27 02:18:41;;;;;;;17.38;11.55;;;7.40;84.50;;;;;;4932411;29;20040;-67
2022/03/27 02:21:07;;;;;;;20.52;11.43;;;7.40;84.60;;;;;;4932019;29;20055;-67
2022/03/27 02:23:33;;;;;;;19.75;11.18;;;7.40;84.70;;;;;;4930246;29;20032;-67
2022/03/27 02:25:59;;;;;;;22.73;12.77;;;7.40;84.90;;;;;;4931382;29;20094;-67
2022/03/27 02:28:24;;;;;;;21.02;13.00;;;7.40;85.00;;;;;;4931434;29;20158;-66
2022/03/27 02:30:51;;;;;;;18.02;11.95;;;7.50;85.00;;;;;;4929455;29;20493;-67
2022/03/27 02:33:16;;;;;;;19.05;11.60;;;7.50;85.00;;;;;;4932199;29;20068;-67
2022/03/27 02:35:42;;;;;;;18.30;11.73;;;7.50;85.00;;;;;;4931025;29;20073;-67
2022/03/27 02:38:08;;;;;;;19.63;12.73;;;7.60;85.10;;;;;;4931115;29;20043;-67
2022/03/27 02:40:41;;;;;;;20.35;13.82;;;7.60;85.20;;;;;;4931272;29;20337;-67
2022/03/27 02:43:07;;;;;;;14.32;11.75;;;7.60;85.10;;;;;;4932106;29;20419;-67
2022/03/27 02:45:33;;;;;;;18.33;11.18;;;7.70;85.10;;;;;;4930121;29;20044;-67
2022/03/27 02:47:59;;;;;;;23.42;11.18;;;7.70;85.10;;;;;;4931044;29;20444;-67
2022/03/27 02:50:28;;;;;;;21.90;11.18;;;7.70;85.00;;;;;;4931761;29;20051;-67
2022/03/27 02:52:54;;;;;;;13.88;10.75;;;7.70;85.10;;;;;;4931589;29;20050;-67
2022/03/27 02:55:20;;;;;;;15.80;10.98;;;7.70;85.10;;;;;;4913621;29;20048;-67
2022/03/27 02:57:46;;;;;;;22.63;12.95;;;7.80;85.10;;;;;;4898254;29;20052;-67
2022/03/27 03:00:12;;;;;;;23.98;10.88;;;7.80;85.10;;;;;;4914557;29;20036;-67
2022/03/27 03:02:38;;;;;;;26.35;11.82;;;7.80;85.10;;;;;;4915012;29;20056;-67
2022/03/27 03:05:07;;;;;;;16.58;9.73;;;7.80;84.70;;;;;;4930584;29;20067;-67
2022/03/27 03:07:33;;;;;;;17.52;9.82;;;7.80;84.70;;;;;;4931254;29;20398;-67
2022/03/27 03:10:01;;;;;;;18.02;8.98;;;7.80;84.70;;;;;;4928800;29;20051;-67
2022/03/27 03:12:27;;;;;;;14.88;7.90;;;7.80;84.70;;;;;;4930751;29;20052;-67
2022/03/27 03:14:55;;;;;;;17.98;8.20;;;7.80;84.60;;;;;;4930224;29;20374;-65
2022/03/27 03:17:22;;;;;;;13.15;8.30;;;7.80;84.40;;;;;;4930915;29;20464;-66
2022/03/27 03:19:48;;;;;;;15.65;8.13;;;7.70;84.30;;;;;;4931454;29;20043;-66
2022/03/27 03:22:14;;;;;;;17.75;8.18;;;7.70;84.20;;;;;;4913998;29;20418;-65
2022/03/27 03:24:40;;;;;;;24.05;8.02;;;7.70;84.10;;;;;;4927936;29;20052;-66
2022/03/27 03:27:06;;;;;;;18.90;7.45;;;7.70;84.10;;;;;;4927900;29;20126;-66
2022/03/27 03:29:31;;;;;;;15.02;7.38;;;7.70;84.10;;;;;;4929987;29;20150;-66
2022/03/27 03:31:57;;;;;;;13.93;7.72;;;7.70;84.10;;;;;;4930370;29;20536;-66
2022/03/27 03:34:23;;;;;;;17.33;7.68;;;7.70;84.10;;;;;;4930182;29;20098;-66
2022/03/27 03:36:49;;;;;;;16.38;8.07;;;7.70;84.00;;;;;;4928739;29;20055;-66
2022/03/27 03:39:14;;;;;;;20.13;7.78;;;7.70;84.00;;;;;;4930282;29;20044;-67
2022/03/27 03:41:40;;;;;;;18.15;8.30;;;7.70;84.00;;;;;;4929300;29;20032;-66
2022/03/27 03:44:07;;;;;;;17.45;8.70;;;7.80;84.00;;;;;;4930754;29;20115;-66
2022/03/27 03:46:33;;;;;;;17.92;7.63;;;7.80;83.90;;;;;;4896955;29;20488;-66
2022/03/27 03:48:59;;;;;;;19.25;8.18;;;7.80;83.90;;;;;;4930033;29;20039;-66
2022/03/27 03:51:25;;;;;;;16.45;8.45;;;7.80;83.90;;;;;;4931582;29;20131;-67
2022/03/27 03:53:51;;;;;;;13.07;6.68;;;7.90;83.80;;;;;;4928886;29;20155;-68
2022/03/27 03:56:16;;;;;;;15.88;7.93;;;7.90;83.70;;;;;;4929867;29;20047;-67
2022/03/27 03:58:42;;;;;;;15.15;7.88;;;7.90;83.70;;;;;;4930113;29;20063;-66
2022/03/27 04:01:07;;;;;;;14.73;6.60;;;7.90;83.60;;;;;;4928658;29;20040;-66
2022/03/27 04:03:33;;;;;;;22.00;7.97;;;7.90;83.60;;;;;;4897196;29;20075;-66
2022/03/27 04:05:59;;;;;;;15.80;6.90;;;8.00;83.50;;;;;;4929900;29;20044;-67
2022/03/27 04:08:25;;;;;;;20.45;8.15;;;8.00;83.40;;;;;;4929553;29;20047;-66
2022/03/27 04:10:50;;;;;;;12.20;6.93;;;8.00;83.40;;;;;;4931234;29;20390;-67
2022/03/27 04:13:16;;;;;;;13.68;6.85;;;8.00;83.30;;;;;;4930269;29;20055;-66
2022/03/27 04:15:42;;;;;;;13.35;6.65;;;7.90;83.20;;;;;;4923630;29;20052;-68
2022/03/27 04:18:09;;;;;;;16.05;6.30;;;7.90;83.20;;;;;;4913099;29;20072;-67
2022/03/27 04:20:35;;;;;;;18.67;6.95;;;7.90;83.10;;;;;;4923234;29;21441;-66
2022/03/27 04:23:02;;;;;;;13.57;6.85;;;7.90;83.00;;;;;;4913002;29;20056;-67
2022/03/27 04:25:28;;;;;;;17.02;7.65;;;7.90;82.90;;;;;;4918900;29;20050;-67
2022/03/27 04:27:54;;;;;;;18.63;8.25;;;7.80;82.90;;;;;;4923956;29;20043;-66
2022/03/27 04:30:20;;;;;;;15.13;7.65;;;7.80;83.00;;;;;;4926623;29;20048;-67
2022/03/27 04:32:46;;;;;;;13.30;7.43;;;7.80;83.00;;;;;;4923771;29;20780;-67
2022/03/27 04:35:12;;;;;;;13.68;7.25;;;7.80;83.10;;;;;;4927791;29;20055;-67
2022/03/27 04:37:39;;;;;;;11.60;6.82;;;7.80;83.00;;;;;;4915121;29;20592;-66
2022/03/27 04:40:05;;;;;;;14.43;7.05;;;7.80;83.00;;;;;;4920875;29;20054;-66
2022/03/27 04:42:31;;;;;;;17.27;8.20;;;7.70;83.00;;;;;;4926548;29;20421;-67
2022/03/27 04:44:56;;;;;;;14.15;7.05;;;7.70;82.90;;;;;;4918382;29;20048;-67
2022/03/27 04:47:22;;;;;;;18.20;7.20;;;7.60;82.90;;;;;;4914677;29;20048;-67
2022/03/27 04:49:48;;;;;;;18.77;7.75;;;7.60;82.90;;;;;;4923606;29;20658;-67
2022/03/27 04:52:14;;;;;;;9.85;6.18;;;7.60;82.90;;;;;;4921376;29;20079;-68
2022/03/27 04:54:40;;;;;;;18.90;7.70;;;7.60;82.90;;;;;;4929041;29;20044;-67
2022/03/27 04:57:06;;;;;;;14.07;6.53;;;7.60;82.90;;;;;;4927861;29;20051;-66
2022/03/27 04:59:32;;;;;;;19.77;7.22;;;7.50;83.00;;;;;;4927504;29;20382;-67
2022/03/27 05:01:58;;;;;;;10.07;6.72;;;7.50;82.90;;;;;;4924635;29;20099;-66
2022/03/27 05:04:25;;;;;;;14.00;6.90;;;7.40;83.00;;;;;;4927348;29;20060;-68
2022/03/27 05:06:51;;;;;;;10.52;7.03;;;7.40;83.00;;;;;;4917657;29;20048;-69
2022/03/27 05:09:18;;;;;;;14.00;7.40;;;7.30;83.10;;;;;;4918643;29;20046;-67
2022/03/27 05:11:45;;;;;;;12.65;7.03;;;7.30;83.10;;;;;;4930351;29;20074;-67
2022/03/27 05:14:11;;;;;;;9.57;6.40;;;7.30;83.10;;;;;;4929653;29;20162;-67
2022/03/27 05:16:36;;;;;;;13.30;6.82;;;7.20;83.20;;;;;;4924516;29;20555;-65
2022/03/27 05:19:04;;;;;;;10.70;6.65;;;7.10;83.30;;;;;;4917850;29;20043;-67
2022/03/27 05:21:30;;;;;;;13.18;6.15;;;7.10;83.30;;;;;;4929184;29;20052;-67
2022/03/27 05:23:56;;;;;;;13.43;6.18;;;7.00;83.50;;;;;;4929734;29;20048;-67
2022/03/27 05:26:21;;;;;;;11.93;6.25;;;7.00;83.60;;;;;;4911666;29;20075;-67
2022/03/27 05:28:47;;;;;;;11.10;6.05;;;6.90;83.80;;;;;;4916331;29;20052;-66
2022/03/27 05:31:13;;;;;;;9.27;5.18;;;6.90;83.90;;;;;;4928735;29;20044;-67
2022/03/27 05:33:39;;;;;;;9.90;5.53;;;6.90;83.90;;;;;;4931107;29;20095;-66
2022/03/27 05:36:10;;;;;;;11.38;5.40;;;6.90;84.00;;;;;;4930779;29;20051;-66
2022/03/27 05:38:39;;;;;;;6.88;4.68;;;7.00;84.00;;;;;;4913651;29;20052;-66
2022/03/27 05:41:09;;;;;;;10.13;4.55;;;7.00;84.10;;;;;;4930235;29;20520;-66
2022/03/27 05:43:35;;;;;;;13.27;5.43;;;7.00;84.10;;;;;;4917567;29;20050;-66
2022/03/27 05:46:01;;;;;;;13.32;5.22;;;7.00;84.00;;;;;;4921272;29;20040;-66
2022/03/27 05:48:27;;;;;;;12.68;5.43;;;7.00;84.00;;;;;;4951579;28;20130;-66
2022/03/27 05:50:53;;;;;;;11.82;5.30;;;7.00;84.00;;;;;;4953606;28;20130;-66
2022/03/27 05:53:18;;;;;;;11.00;4.70;;;7.00;84.00;;;;;;4947394;28;20055;-66
2022/03/27 05:55:44;;;;;;;13.82;5.82;;;7.00;83.90;;;;;;4934569;29;20055;-66
2022/03/27 05:58:10;;;;;;;10.52;4.63;;;7.00;83.90;;;;;;4918968;29;20072;-66
2022/03/27 06:00:36;;;;;;;13.07;5.40;;;7.10;83.80;;;;;;4926508;29;20464;-66
2022/03/27 06:03:01;;;;;;;11.48;5.07;;;7.10;83.70;;;;;;4915522;29;20044;-67
2022/03/27 06:05:27;;;;;;;11.85;5.18;;;7.10;83.70;;;;;;4927731;29;20056;-67
2022/03/27 06:07:54;;;;;;;13.68;4.93;;;7.10;83.70;;;;;;4925900;29;20469;-66
2022/03/27 06:10:31;;;;;;;13.82;5.57;;;7.10;83.70;;;;;;4934234;29;20048;-67
2022/03/27 06:12:57;;;;;;;11.35;5.70;;;7.20;83.70;;;;;;4925673;29;20074;-67
2022/03/27 06:15:23;;;;;;;12.80;5.93;;;7.20;83.70;;;;;;4915338;29;20051;-67
2022/03/27 06:17:50;;;;;;;12.88;5.43;;;7.30;83.60;;;;;;4930102;28;20051;-67
2022/03/27 06:20:21;;;;;;;13.48;6.07;;;7.30;83.60;;;;;;4945986;29;20047;-67
2022/03/27 06:22:47;;;;;;;17.50;6.13;;;7.30;83.60;;;;;;4949059;29;20043;-66
2022/03/27 06:25:16;;;;;;;20.88;7.07;;;7.30;83.60;;;;;;4926196;29;20295;-67
2022/03/27 06:27:41;;;;;;;16.15;7.90;;;7.40;83.70;;;;;;4915726;29;20051;-66
2022/03/27 06:30:10;;;;;;;16.95;6.38;;;7.50;83.70;;;;;;4915837;29;20054;-66
2022/03/27 06:32:36;;;;;;;17.27;6.38;;;7.50;83.70;;;;;;4915717;29;20405;-67
2022/03/27 06:35:06;;;;;;;22.50;7.18;;;7.60;83.70;;;;;;4923948;29;20055;-67
2022/03/27 06:37:33;;;;;;;20.85;7.25;;;7.60;83.60;;;;;;4914248;29;20501;-67
2022/03/27 06:39:59;;;;;;;26.20;9.95;;;7.60;83.60;;;;;;4915028;29;20052;-67
2022/03/27 06:42:26;;;;;;;17.55;7.43;;;7.70;83.50;;;;;;4915160;29;20052;-67
2022/03/27 06:44:53;;;;;;;26.33;7.93;;;7.70;83.60;;;;;;4920166;29;20080;-67
2022/03/27 06:47:19;;;;;;;20.77;7.53;;;7.80;83.60;;;;;;4933233;29;20082;-67
2022/03/27 06:49:45;;;;;;;25.38;7.07;;;7.80;83.60;;;;;;4931818;29;20056;-67
2022/03/27 06:52:11;;;;;;;20.00;6.70;;;7.80;83.70;;;;;;4922363;29;20148;-67
2022/03/27 06:54:37;;;;;;;23.48;7.15;;;7.90;83.70;;;;;;4929144;29;20565;-67
2022/03/27 06:57:03;;;;;;;24.58;7.68;;;7.90;83.60;;;;;;4917106;29;20047;-67
2022/03/27 07:03:01;;;;;;;29.85;8.50;;;7.90;83.50;;;;;;4900923;29;20056;-67
2022/03/27 07:04:59;;;;;;;36.78;8.65;;;7.90;83.50;;;;;;4915367;29;20060;-68
2022/03/27 07:07:25;;;;;;;32.78;8.40;;;8.00;83.50;;;;;;4934169;29;20044;-66
2022/03/27 07:09:50;;;;;;;35.38;9.48;;;8.00;83.40;;;;;;4931363;29;20043;-66
2022/03/27 07:12:16;;;;;;;28.92;8.75;;;8.00;83.40;;;;;;4917103;29;20044;-66
2022/03/27 07:14:41;;;;;;;38.30;10.23;;;8.00;83.60;;;;;;4913763;29;20054;-67
2022/03/27 07:17:07;;;;;;;38.20;11.30;;;8.00;83.60;;;;;;4929369;29;20504;-66
2022/03/27 07:19:34;;;;;;;33.03;9.98;;;8.10;83.60;;;;;;4922997;29;20079;-66
2022/03/27 07:22:00;;;;;;;34.58;8.98;;;8.10;83.50;;;;;;4930852;29;20131;-67
2022/03/27 07:24:26;;;;;;;49.95;11.15;;;8.10;83.70;;;;;;4932483;29;20131;-67
2022/03/27 07:26:51;;;;;;;34.28;9.95;;;8.10;83.80;;;;;;4932663;29;20043;-67
2022/03/27 07:29:17;;;;;;;43.30;10.88;;;8.20;83.70;;;;;;4931102;29;20055;-67
2022/03/27 07:31:42;;;;;;;37.53;9.23;;;8.20;83.60;;;;;;4921639;29;20044;-67
2022/03/27 07:34:10;;;;;;;39.28;9.63;;;8.20;83.40;;;;;;4906118;29;20379;-67
2022/03/27 07:36:36;;;;;;;41.78;9.32;;;8.20;83.50;;;;;;4915250;29;20054;-66
2022/03/27 07:39:02;;;;;;;49.30;11.02;;;8.20;83.60;;;;;;4930651;29;20060;-67
2022/03/27 07:41:28;;;;;;;47.10;11.05;;;8.30;83.60;;;;;;4932131;29;20047;-67
2022/03/27 07:43:53;;;;;;;46.65;11.10;;;8.40;83.50;;;;;;4913775;29;20126;-66
2022/03/27 07:46:19;;;;;;;43.67;11.38;;;8.40;83.70;;;;;;4930357;29;20051;-67
2022/03/27 07:48:44;;;;;;;43.65;10.70;;;8.40;83.60;;;;;;4927678;29;20051;-67
2022/03/27 07:51:10;;;;;;;50.22;10.55;;;8.40;83.50;;;;;;4914032;29;20481;-66
2022/03/27 07:53:36;;;;;;;42.70;10.60;;;8.60;83.10;;;;;;4908383;29;20055;-66
2022/03/27 07:56:03;;;;;;;37.65;8.85;;;8.60;82.80;;;;;;4930542;29;20583;-66
2022/03/27 07:58:29;;;;;;;40.55;10.35;;;8.60;82.80;;;;;;4912110;29;20058;-67
2022/03/27 08:00:55;;;;;;;45.17;9.57;;;8.60;82.60;;;;;;4930461;29;20455;-68
2022/03/27 08:03:21;;;;;;;37.42;9.10;;;8.60;82.30;;;;;;4930171;29;20051;-68
2022/03/27 08:05:47;;;;;;;36.72;9.70;;;8.60;82.20;;;;;;4904361;29;20546;-67
2022/03/27 08:08:13;;;;;;;36.80;9.13;;;8.60;82.40;;;;;;4898616;29;20044;-67
2022/03/27 08:10:38;;;;;;;42.08;11.80;;;8.60;82.60;;;;;;4910492;29;20056;-68
2022/03/27 08:13:04;;;;;;;35.22;12.70;;;8.80;82.40;;;;;;4901953;29;20409;-68
2022/03/27 08:15:30;;;;;;;52.60;11.52;;;8.80;81.90;;;;;;4915565;29;20040;-68
2022/03/27 08:17:56;;;;;;;43.97;10.95;;;8.80;82.00;;;;;;4903772;29;20047;-67
2022/03/27 08:20:23;;;;;;;43.60;11.18;;;8.90;82.00;;;;;;4896496;29;20127;-67
2022/03/27 08:22:49;;;;;;;47.63;10.38;;;8.90;81.90;;;;;;4901979;29;20470;-68
2022/03/27 08:26:55;;;;;;;44.83;9.95;;;8.90;82.00;;;;;;4901601;29;20084;-68
2022/03/27 08:28:00;;;;;;;33.40;9.32;;;9.10;82.10;;;;;;4904118;29;20052;-66
2022/03/27 08:30:26;;;;;;;34.67;10.05;;;9.20;82.10;;;;;;4896414;29;20063;-67
2022/03/27 08:32:51;;;;;;;37.30;9.07;;;9.20;81.60;;;;;;4904473;29;20048;-67
2022/03/27 08:35:17;;;;;;;43.65;9.15;;;9.20;81.50;;;;;;4907245;29;20221;-68
2022/03/27 08:37:43;;;;;;;49.47;9.05;;;9.30;81.00;;;;;;4900962;29;20056;-68
2022/03/27 08:40:09;;;;;;;43.55;10.52;;;9.40;80.60;;;;;;4900086;29;20796;-68
2022/03/27 08:42:35;;;;;;;55.53;11.13;;;9.30;80.60;;;;;;4906609;29;20063;-68
2022/03/27 08:45:01;;;;;;;38.53;11.25;;;9.50;80.60;;;;;;4906544;29;20127;-68
2022/03/27 08:47:28;;;;;;;51.33;11.60;;;9.50;80.60;;;;;;4911919;29;20171;-68
2022/03/27 08:50:13;;;;;;;39.30;9.68;;;9.60;80.70;;;;;;4898437;29;20146;-68
2022/03/27 08:52:51;;;;;;;37.95;8.82;;;9.70;80.60;;;;;;4907338;29;20051;-68
2022/03/27 08:55:27;;;;;;;38.13;9.60;;;9.70;80.20;;;;;;4904352;29;20076;-70
2022/03/27 08:57:54;;;;;;;44.45;8.95;;;9.90;79.70;;;;;;4905477;29;20044;-70
2022/03/27 09:00:21;;;;;;;38.63;9.30;;;9.90;79.20;;;;;;4893698;29;20107;-70
2022/03/27 09:02:47;;;;;;;36.53;9.98;;;9.90;78.80;;;;;;4894650;29;20052;-70
2022/03/27 09:05:13;;;;;;;35.38;8.40;;;10.00;78.80;;;;;;4905517;29;20083;-70
2022/03/27 09:07:39;;;;;;;40.47;9.93;;;10.00;78.90;;;;;;4912223;29;20809;-71
2022/03/27 09:10:08;;;;;;;34.00;10.50;;;10.00;78.90;;;;;;4924006;29;20039;-71
2022/03/27 09:12:34;;;;;;;39.13;8.77;;;10.10;78.90;;;;;;4917507;29;20382;-70
2022/03/27 09:15:01;;;;;;;43.28;9.27;;;10.10;78.60;;;;;;4911470;29;20043;-71
2022/03/27 09:17:26;;;;;;;30.48;7.70;;;10.20;78.30;;;;;;4918789;29;20360;-71
2022/03/27 09:19:52;;;;;;;42.22;9.50;;;10.20;77.50;;;;;;4921614;29;20068;-71
2022/03/27 09:22:34;;;;;;;36.80;8.38;;;10.30;77.50;;;;;;4921911;29;20639;-71
2022/03/27 09:25:02;;;;;;;36.90;7.73;;;10.30;77.50;;;;;;4924215;29;20055;-71
2022/03/27 09:27:33;;;;;;;45.72;9.18;;;10.40;77.10;;;;;;4928186;29;20295;-69
2022/03/27 09:30:06;;;;;;;31.65;7.78;;;10.50;76.80;;;;;;4916105;29;20379;-71
2022/03/27 09:32:40;;;;;;;31.63;9.05;;;10.60;76.40;;;;;;4919991;29;20130;-71
2022/03/27 09:35:11;;;;;;;45.80;7.72;;;10.60;75.60;;;;;;4935735;29;20043;-71
2022/03/27 09:37:43;;;;;;;33.30;8.65;;;10.70;74.00;;;;;;4932467;29;20079;-70
2022/03/27 09:40:12;;;;;;;39.20;7.22;;;10.70;73.90;;;;;;4929369;29;20106;-71
2022/03/27 09:42:40;;;;;;;36.33;7.35;;;10.70;74.60;;;;;;4929473;29;20496;-70
2022/03/27 09:45:16;;;;;;;28.73;6.35;;;10.80;73.80;;;;;;4929463;29;20055;-67
2022/03/27 09:47:43;;;;;;;28.25;6.25;;;11.00;72.40;;;;;;4927016;29;20044;-67
2022/03/27 09:50:34;;;;;;;26.17;6.65;;;10.90;71.50;;;;;;4930498;29;20054;-67
2022/03/27 09:53:20;;;;;;;31.40;6.30;;;11.10;70.50;;;;;;4928784;29;20039;-67
2022/03/27 09:55:52;;;;;;;33.15;7.07;;;11.10;69.30;;;;;;4933476;29;20591;-67
2022/03/27 09:58:36;;;;;;;24.58;6.28;;;11.10;68.50;;;;;;4931977;29;20102;-67
2022/03/27 10:01:22;;;;;;;32.35;6.55;;;11.10;68.70;;;;;;4930618;29;20047;-68
2022/03/27 10:04:02;;;;;;;30.25;5.60;;;11.10;69.40;;;;;;4932043;29;20078;-67
2022/03/27 10:06:38;;;;;;;32.22;7.05;;;11.20;69.40;;;;;;4932849;29;20056;-68
2022/03/27 10:09:12;;;;;;;29.13;5.47;;;11.40;68.90;;;;;;4921670;29;20493;-68
2022/03/27 10:11:39;;;;;;;25.80;4.85;;;11.40;67.70;;;;;;4930633;29;20417;-67
2022/03/27 10:14:06;;;;;;;21.25;5.07;;;11.30;67.00;;;;;;4931115;29;20118;-73
2022/03/27 10:16:38;;;;;;;22.75;4.53;;;11.40;67.30;;;;;;4911140;29;20048;-66
2022/03/27 10:19:29;;;;;;;23.50;5.13;;;11.60;65.20;;;;;;4928018;29;20052;-67
2022/03/27 10:21:55;;;;;;;20.70;5.07;;;11.60;65.20;;;;;;4920238;29;20288;-67
2022/03/27 10:24:25;;;;;;;20.00;3.85;;;11.60;65.40;;;;;;4914656;29;20061;-67
2022/03/27 10:26:55;;;;;;;19.00;4.05;;;11.60;64.20;;;;;;4919087;29;20405;-68
2022/03/27 10:29:23;;;;;;;15.80;3.67;;;11.70;62.40;;;;;;4922351;29;20587;-68
2022/03/27 10:31:48;;;;;;;17.15;3.88;;;11.80;61.60;;;;;;4931380;29;20043;-67
2022/03/27 10:34:14;;;;;;;16.23;3.53;;;11.80;59.80;;;;;;4933735;29;20382;-67
2022/03/27 10:37:01;;;;;;;14.93;4.57;;;11.90;57.10;;;;;;4933673;29;20056;-67
2022/03/27 10:39:42;;;;;;;13.70;3.75;;;11.90;56.30;;;;;;4932795;29;20585;-66
2022/03/27 10:42:20;;;;;;;19.25;3.85;;;11.90;58.30;;;;;;4914336;29;20188;-66
2022/03/27 10:45:09;;;;;;;12.85;3.60;;;12.00;58.70;;;;;;4923586;29;20157;-67
2022/03/27 10:47:34;;;;;;;16.58;3.47;;;12.00;57.50;;;;;;4919083;29;20098;-68
2022/03/27 10:50:06;;;;;;;9.57;2.97;;;12.10;55.90;;;;;;4920550;29;20075;-67
2022/03/27 10:52:56;;;;;;;12.10;2.67;;;12.10;54.40;;;;;;4925194;29;20052;-67
2022/03/27 10:55:21;;;;;;;12.35;2.30;;;12.30;53.00;;;;;;4925218;29;20498;-70
2022/03/27 10:57:51;;;;;;;11.55;2.53;;;12.40;49.60;;;;;;4927416;29;20059;-70
2022/03/27 11:00:37;;;;;;;9.40;2.42;;;12.50;49.20;;;;;;4930778;29;20075;-70
2022/03/27 11:03:02;;;;;;;12.02;2.72;;;12.40;48.30;;;;;;4925951;29;20094;-70
2022/03/27 11:05:36;;;;;;;11.35;2.72;;;12.50;50.30;;;;;;4922999;29;20091;-71
2022/03/27 11:08:18;;;;;;;14.23;3.78;;;12.50;50.60;;;;;;4928069;28;20603;-64
2022/03/27 11:10:49;;;;;;;12.40;2.42;;;12.60;48.80;;;;;;4915962;29;20058;-67
2022/03/27 11:13:30;;;;;;;9.45;2.40;;;12.60;48.60;;;;;;4918803;29;20095;-68
2022/03/27 11:16:11;;;;;;;10.27;3.38;;;12.70;47.70;;;;;;4926691;28;20535;-67
2022/03/27 11:18:43;;;;;;;14.15;3.22;;;12.70;48.20;;;;;;4930310;29;20047;-67
2022/03/27 11:21:11;;;;;;;9.00;2.28;;;12.80;48.10;;;;;;4933880;29;20044;-65
2022/03/27 11:23:39;;;;;;;12.57;2.63;;;12.90;47.40;;;;;;4931603;29;20043;-67
2022/03/27 11:26:29;;;;;;;11.63;2.97;;;12.80;47.90;;;;;;4929433;29;20050;-67
2022/03/27 11:28:59;;;;;;;17.17;3.72;;;12.90;48.50;;;;;;4920139;29;20067;-65
2022/03/27 11:31:30;;;;;;;13.07;3.10;;;12.80;49.80;;;;;;4928023;29;20453;-66
2022/03/27 11:34:04;;;;;;;11.98;3.03;;;12.90;50.70;;;;;;4928946;29;20413;-67
2022/03/27 11:36:31;;;;;;;12.95;3.33;;;13.00;50.50;;;;;;4912080;29;20421;-67
2022/03/27 11:39:02;;;;;;;15.50;3.40;;;13.00;50.60;;;;;;4930593;29;20041;-67
2022/03/27 11:41:43;;;;;;;11.65;3.67;;;13.10;50.50;;;;;;4928281;29;20040;-66
2022/03/27 11:44:18;;;;;;;13.02;2.47;;;13.10;49.90;;;;;;4932092;29;20046;-67
2022/03/27 11:46:48;;;;;;;13.05;2.60;;;13.10;50.50;;;;;;4931303;29;20052;-67
2022/03/27 11:49:15;;;;;;;11.13;2.60;;;13.20;50.00;;;;;;4914857;29;20052;-67
2022/03/27 11:51:41;;;;;;;11.90;2.85;;;13.20;49.90;;;;;;4925966;29;20437;-67
2022/03/27 11:54:18;;;;;;;15.05;2.70;;;13.20;49.80;;;;;;4927154;29;20047;-70
2022/03/27 11:57:01;;;;;;;12.68;2.97;;;13.50;48.20;;;;;;4927931;29;20695;-67
2022/03/27 11:59:26;;;;;;;13.25;3.53;;;13.40;49.30;;;;;;4930384;29;20059;-67
2022/03/27 12:01:57;;;;;;;9.98;2.92;;;13.30;49.90;;;;;;4928747;29;20402;-67
2022/03/27 12:04:24;;;;;;;12.82;2.40;;;13.40;49.50;;;;;;4928153;29;20052;-67
2022/03/27 12:06:56;;;;;;;8.90;2.65;;;13.50;49.60;;;;;;4931046;29;20178;-68
2022/03/27 12:09:24;;;;;;;;;;;13.40;48.90;;;;;;4925798;29;20585;-66
2022/03/27 12:12:12;;;;;;;13.73;2.55;;;13.40;48.40;;;;;;4929268;29;19923;-65
2022/03/27 12:15:10;;;;;;;11.52;3.10;;;13.60;49.70;;;;;;4928118;29;20039;-66
2022/03/27 12:17:45;;;;;;;11.98;3.03;;;13.70;48.90;;;;;;4887585;29;20087;-66
2022/03/27 12:20:12;;;;;;;13.10;2.67;;;13.60;49.20;;;;;;4928362;29;20048;-66
2022/03/27 12:22:46;;;;;;;12.50;2.55;;;13.70;49.20;;;;;;4929121;29;20052;-66
2022/03/27 12:25:20;;;;;;;13.15;2.88;;;13.70;50.00;;;;;;4927039;29;20071;-67
2022/03/27 12:30:47;;;;;;;12.00;2.90;;;14.00;48.80;;;;;;4912387;29;20064;-67
2022/03/27 12:33:13;;;;;;;12.98;2.45;;;14.00;49.50;;;;;;4925547;29;20436;-67
2022/03/27 12:35:39;;;;;;;11.50;2.67;;;14.00;49.50;;;;;;4934047;28;20050;-66
2022/03/27 12:38:05;;;;;;;11.93;2.63;;;14.00;49.30;;;;;;4931472;29;20389;-67
2022/03/27 12:40:42;;;;;;;10.55;2.55;;;14.10;50.10;;;;;;4926355;29;20063;-67
2022/03/27 12:43:13;;;;;;;11.98;2.65;;;14.20;49.60;;;;;;4915833;29;20805;-66
2022/03/27 12:45:42;;;;;;;11.02;2.47;;;14.20;49.10;;;;;;4928678;29;20047;-67
2022/03/27 12:48:27;;;;;;;8.52;2.40;;;14.30;48.80;;;;;;4922357;29;20142;-67
2022/03/27 12:50:55;;;;;;;13.88;2.70;;;14.30;48.70;;;;;;4923674;29;20398;-68
2022/03/27 12:53:20;;;;;;;10.40;2.13;;;14.30;48.80;;;;;;4931212;29;20047;-67
2022/03/27 12:55:46;;;;;;;12.88;2.70;;;14.30;48.70;;;;;;4929488;29;20074;-67
2022/03/27 12:58:13;;;;;;;11.80;2.53;;;14.30;49.50;;;;;;4920985;29;20039;-67